Time;durP1;ratioP1;P1;durP2;ratioP2;P2;SDS_P1;SDS_P2;PMS_P1;PMS_P2;Temp;Humidity;BMP_temperature;BMP_pressure;BME280_temperature;BME280_humidity;BME280_pressure;Samples;Min_cycle;Max_cycle;Signal;HPM_P1;HPM_P2
2021/08/10 00:02:20;;;;;;;4.90;2.20;;;;;;;;;;5035388;28;20503;-79
2021/08/10 00:04:46;;;;;;;4.75;2.63;;;;;;;;;;5017519;28;20050;-79
2021/08/10 00:07:12;;;;;;;3.45;2.78;;;;;;;;;;5035111;28;20041;-80
2021/08/10 00:09:38;;;;;;;4.65;2.17;;;;;;;;;;5017584;28;20077;-80
2021/08/10 00:12:05;;;;;;;4.22;2.22;;;;;;;;;;5035000;28;20560;-79
2021/08/10 00:14:31;;;;;;;3.92;2.70;;;;;;;;;;5017496;28;20037;-79
2021/08/10 00:16:57;;;;;;;3.47;2.53;;;;;;;;;;5035171;28;20091;-79
2021/08/10 00:19:23;;;;;;;5.90;2.00;;;;;;;;;;5034841;28;20048;-80
2021/08/10 00:21:49;;;;;;;5.28;2.42;;;;;;;;;;5017601;28;20184;-80
2021/08/10 00:24:15;;;;;;;4.13;2.70;;;;;;;;;;5017694;28;20038;-79
2021/08/10 00:26:41;;;;;;;5.47;2.83;;;;;;;;;;5035045;28;20045;-80
2021/08/10 00:29:07;;;;;;;7.55;2.65;;;;;;;;;;5016962;28;20030;-80
2021/08/10 00:31:34;;;;;;;7.00;2.75;;;;;;;;;;5035362;28;20465;-80
2021/08/10 00:34:00;;;;;;;3.80;2.60;;;;;;;;;;5017182;28;20029;-80
2021/08/10 00:36:26;;;;;;;3.50;2.78;;;;;;;;;;5034476;28;20397;-80
2021/08/10 00:38:52;;;;;;;6.07;2.80;;;;;;;;;;5034879;28;20124;-80
2021/08/10 00:41:21;;;;;;;4.38;2.55;;;;;;;;;;5017778;28;20109;-80
2021/08/10 00:43:48;;;;;;;6.40;3.03;;;;;;;;;;5034624;28;20041;-80
2021/08/10 00:46:15;;;;;;;6.70;2.40;;;;;;;;;;5017113;28;20389;-80
2021/08/10 00:48:41;;;;;;;6.68;2.55;;;;;;;;;;5034792;28;20120;-80
2021/08/10 00:51:09;;;;;;;2.92;2.03;;;;;;;;;;5034746;28;20038;-80
2021/08/10 00:53:35;;;;;;;2.95;2.30;;;;;;;;;;5035028;28;20484;-80
2021/08/10 00:56:05;;;;;;;4.03;2.83;;;;;;;;;;5016981;28;20102;-80
2021/08/10 00:58:31;;;;;;;3.25;2.30;;;;;;;;;;5016741;28;20087;-80
2021/08/10 01:00:57;;;;;;;6.38;2.75;;;;;;;;;;5017266;28;20385;-79
2021/08/10 01:03:24;;;;;;;5.57;2.20;;;;;;;;;;5036951;28;20030;-79
2021/08/10 01:05:50;;;;;;;5.90;2.60;;;;;;;;;;5038647;28;20622;-79
2021/08/10 01:08:40;;;;;;;3.58;2.83;;;;;;;;;;5021177;28;20042;-80
2021/08/10 01:11:29;;;;;;;4.30;2.42;;;;;;;;;;5039031;28;20037;-79
2021/08/10 01:14:03;;;;;;;3.67;2.42;;;;;;;;;;5021427;28;20515;-79
2021/08/10 01:16:29;;;;;;;6.78;2.47;;;;;;;;;;5020912;28;20481;-79
2021/08/10 01:18:57;;;;;;;5.75;2.50;;;;;;;;;;5020716;28;20037;-80
2021/08/10 01:21:23;;;;;;;3.55;2.70;;;;;;;;;;5020101;28;20140;-80
2021/08/10 01:23:53;;;;;;;4.90;2.72;;;;;;;;;;5037790;28;20463;-79
2021/08/10 01:26:46;;;;;;;3.65;2.28;;;;;;;;;;5020114;28;20045;-79
2021/08/10 01:29:30;;;;;;;4.07;2.60;;;;;;;;;;5017441;28;20034;-80
2021/08/10 01:31:58;;;;;;;3.33;2.72;;;;;;;;;;5038252;28;20049;-79
2021/08/10 01:34:26;;;;;;;5.95;2.50;;;;;;;;;;5037603;28;20069;-80
2021/08/10 01:36:55;;;;;;;6.55;2.45;;;;;;;;;;5020452;28;20496;-79
2021/08/10 01:39:22;;;;;;;5.07;2.72;;;;;;;;;;5037835;28;20038;-80
2021/08/10 01:41:49;;;;;;;7.75;2.70;;;;;;;;;;5037597;28;20041;-80
2021/08/10 01:44:16;;;;;;;2.65;2.25;;;;;;;;;;5019939;28;20033;-79
2021/08/10 01:46:43;;;;;;;3.50;2.40;;;;;;;;;;5019961;28;20481;-80
2021/08/10 01:49:11;;;;;;;2.97;2.45;;;;;;;;;;5037437;28;20034;-80
2021/08/10 01:51:37;;;;;;;2.70;2.30;;;;;;;;;;5019449;28;20041;-80
2021/08/10 01:54:04;;;;;;;3.75;2.70;;;;;;;;;;5019998;28;20033;-80
2021/08/10 01:56:30;;;;;;;5.22;2.50;;;;;;;;;;5037227;28;20535;-80
2021/08/10 01:58:59;;;;;;;5.88;2.78;;;;;;;;;;5019733;28;20044;-80
2021/08/10 02:01:27;;;;;;;5.68;2.30;;;;;;;;;;5019817;28;20110;-79
2021/08/10 02:03:54;;;;;;;3.63;2.60;;;;;;;;;;5037361;28;20075;-79
2021/08/10 02:06:20;;;;;;;5.20;2.70;;;;;;;;;;5019415;28;20048;-80
2021/08/10 02:08:48;;;;;;;2.83;2.50;;;;;;;;;;5037302;28;20038;-80
2021/08/10 02:11:15;;;;;;;7.50;2.55;;;;;;;;;;5037626;28;20049;-79
2021/08/10 02:13:41;;;;;;;3.38;2.40;;;;;;;;;;5019193;28;20037;-80
2021/08/10 02:16:08;;;;;;;4.60;2.70;;;;;;;;;;5036903;28;20045;-80
2021/08/10 02:18:35;;;;;;;2.95;2.53;;;;;;;;;;5019438;28;20029;-79
2021/08/10 02:21:02;;;;;;;5.72;2.50;;;;;;;;;;5036836;28;20092;-80
2021/08/10 02:23:29;;;;;;;4.57;2.65;;;;;;;;;;5019942;28;20044;-79
2021/08/10 02:25:56;;;;;;;6.60;2.40;;;;;;;;;;5020052;28;20095;-80
2021/08/10 02:28:22;;;;;;;8.07;2.80;;;;;;;;;;5036927;28;20033;-79
2021/08/10 02:30:52;;;;;;;3.72;2.53;;;;;;;;;;5037281;28;20111;-79
2021/08/10 02:33:20;;;;;;;4.53;2.70;;;;;;;;;;5019129;28;20034;-79
2021/08/10 02:35:47;;;;;;;3.40;2.60;;;;;;;;;;5036657;28;20033;-79
2021/08/10 02:38:15;;;;;;;4.82;2.58;;;;;;;;;;5018996;28;20256;-79
2021/08/10 02:40:42;;;;;;;5.95;2.67;;;;;;;;;;5019793;28;20040;-79
2021/08/10 02:43:09;;;;;;;7.95;2.72;;;;;;;;;;5036739;28;20131;-79
2021/08/10 02:45:36;;;;;;;3.10;2.38;;;;;;;;;;5018887;28;20076;-79
2021/08/10 02:48:02;;;;;;;4.63;2.40;;;;;;;;;;5018745;28;20033;-80
2021/08/10 02:50:29;;;;;;;4.13;2.50;;;;;;;;;;5019119;28;20107;-80
2021/08/10 02:52:55;;;;;;;2.88;2.13;;;;;;;;;;5036526;28;20485;-80
2021/08/10 02:55:22;;;;;;;3.65;2.47;;;;;;;;;;5019478;28;20446;-80
2021/08/10 02:57:56;;;;;;;6.75;2.85;;;;;;;;;;5018621;28;20029;-79
2021/08/10 03:00:25;;;;;;;3.65;2.35;;;;;;;;;;5018861;28;20156;-79
2021/08/10 03:02:53;;;;;;;3.15;2.70;;;;;;;;;;5018413;28;20127;-79
2021/08/10 03:05:22;;;;;;;3.70;2.50;;;;;;;;;;5036079;28;20069;-79
2021/08/10 03:07:52;;;;;;;4.25;2.38;;;;;;;;;;5036195;28;20477;-79
2021/08/10 03:10:19;;;;;;;6.15;2.70;;;;;;;;;;5018028;28;20068;-79
2021/08/10 03:12:49;;;;;;;5.22;3.10;;;;;;;;;;5019211;28;20095;-79
2021/08/10 03:15:16;;;;;;;5.75;3.15;;;;;;;;;;5035827;28;20453;-79
2021/08/10 03:17:44;;;;;;;3.97;2.78;;;;;;;;;;5018216;28;20065;-79
2021/08/10 03:20:11;;;;;;;6.22;2.60;;;;;;;;;;5017609;28;20095;-79
2021/08/10 03:22:41;;;;;;;3.58;3.17;;;;;;;;;;5017648;28;20104;-79
2021/08/10 03:25:08;;;;;;;2.60;2.40;;;;;;;;;;5035236;28;20045;-79
2021/08/10 03:27:35;;;;;;;3.42;2.50;;;;;;;;;;5017740;28;20065;-79
2021/08/10 03:30:04;;;;;;;3.17;2.55;;;;;;;;;;5035805;28;20033;-79
2021/08/10 03:32:31;;;;;;;4.13;2.72;;;;;;;;;;5035712;28;20069;-79
2021/08/10 03:34:59;;;;;;;4.30;2.53;;;;;;;;;;5017793;28;20060;-79
2021/08/10 03:37:25;;;;;;;8.15;3.00;;;;;;;;;;5035667;28;20045;-79
2021/08/10 03:39:52;;;;;;;3.33;2.88;;;;;;;;;;5035508;28;20067;-79
2021/08/10 03:42:18;;;;;;;3.20;2.78;;;;;;;;;;5035490;28;20049;-79
2021/08/10 03:44:44;;;;;;;5.03;2.67;;;;;;;;;;5035600;28;20037;-79
2021/08/10 03:47:11;;;;;;;3.10;2.50;;;;;;;;;;5035241;28;20037;-80
2021/08/10 03:49:37;;;;;;;4.07;2.90;;;;;;;;;;5035486;28;20055;-79
2021/08/10 03:52:04;;;;;;;4.47;2.88;;;;;;;;;;5035376;28;20136;-79
2021/08/10 03:54:30;;;;;;;4.40;3.00;;;;;;;;;;5035348;28;20509;-79
2021/08/10 03:56:58;;;;;;;4.38;2.97;;;;;;;;;;5017583;28;20085;-79
2021/08/10 03:59:24;;;;;;;3.33;2.78;;;;;;;;;;5035484;28;20043;-79
2021/08/10 04:01:52;;;;;;;4.10;2.65;;;;;;;;;;5017345;28;20033;-79
2021/08/10 04:04:19;;;;;;;7.10;2.60;;;;;;;;;;5017522;28;20029;-79
2021/08/10 04:06:45;;;;;;;4.35;2.75;;;;;;;;;;5017702;28;20072;-79
2021/08/10 04:09:11;;;;;;;5.07;3.13;;;;;;;;;;5035168;28;20047;-79
2021/08/10 04:11:40;;;;;;;5.32;3.10;;;;;;;;;;5035695;28;20045;-79
2021/08/10 04:14:08;;;;;;;3.50;3.00;;;;;;;;;;5017484;28;20501;-79
2021/08/10 04:16:39;;;;;;;4.75;3.30;;;;;;;;;;5034947;28;20030;-79
2021/08/10 04:19:06;;;;;;;5.22;3.03;;;;;;;;;;5035275;28;20108;-79
2021/08/10 04:21:32;;;;;;;3.88;2.92;;;;;;;;;;5035041;28;20060;-79
2021/08/10 04:24:04;;;;;;;7.63;2.80;;;;;;;;;;5034746;28;20041;-79
2021/08/10 04:26:30;;;;;;;5.15;2.80;;;;;;;;;;5035679;28;20046;-79
2021/08/10 04:28:57;;;;;;;3.53;3.22;;;;;;;;;;5017282;28;20038;-79
2021/08/10 04:31:23;;;;;;;3.15;2.85;;;;;;;;;;5017063;28;20041;-79
2021/08/10 04:33:49;;;;;;;4.70;2.90;;;;;;;;;;5034641;28;20081;-79
2021/08/10 04:36:15;;;;;;;5.45;3.25;;;;;;;;;;5034669;28;20037;-79
2021/08/10 04:38:41;;;;;;;4.32;2.80;;;;;;;;;;5035006;28;20038;-79
2021/08/10 04:41:07;;;;;;;3.60;2.78;;;;;;;;;;5034935;28;20060;-79
2021/08/10 04:43:34;;;;;;;3.35;2.90;;;;;;;;;;5017090;28;20037;-79
2021/08/10 04:46:00;;;;;;;3.80;2.63;;;;;;;;;;5017105;28;20043;-78
2021/08/10 04:48:26;;;;;;;6.30;2.88;;;;;;;;;;5035039;28;20044;-78
2021/08/10 04:50:52;;;;;;;3.95;2.88;;;;;;;;;;5034609;28;20046;-79
2021/08/10 04:53:18;;;;;;;4.93;3.10;;;;;;;;;;5034663;28;20116;-79
2021/08/10 04:55:45;;;;;;;4.07;3.30;;;;;;;;;;5016975;28;20041;-79
2021/08/10 04:58:11;;;;;;;4.72;3.00;;;;;;;;;;5016950;28;20029;-79
2021/08/10 05:00:37;;;;;;;6.70;3.60;;;;;;;;;;5017278;28;20459;-78
2021/08/10 05:03:03;;;;;;;3.92;2.92;;;;;;;;;;5034203;28;20049;-78
2021/08/10 05:05:30;;;;;;;5.55;3.15;;;;;;;;;;5034587;28;20037;-79
2021/08/10 05:07:56;;;;;;;4.20;3.10;;;;;;;;;;5017678;28;20029;-79
2021/08/10 05:10:22;;;;;;;5.10;2.75;;;;;;;;;;5034562;28;20048;-79
2021/08/10 05:12:48;;;;;;;5.53;3.03;;;;;;;;;;5016810;28;20042;-79
2021/08/10 05:15:14;;;;;;;3.83;2.92;;;;;;;;;;5034579;28;20048;-79
2021/08/10 05:17:40;;;;;;;5.65;2.75;;;;;;;;;;5034565;28;20034;-79
2021/08/10 05:20:07;;;;;;;5.25;2.85;;;;;;;;;;5016698;28;20069;-79
2021/08/10 05:22:33;;;;;;;7.38;3.20;;;;;;;;;;5016184;28;20057;-79
2021/08/10 05:24:59;;;;;;;3.88;2.90;;;;;;;;;;5016374;28;20059;-79
2021/08/10 05:27:25;;;;;;;5.78;3.10;;;;;;;;;;5016245;28;20117;-80
2021/08/10 05:29:51;;;;;;;5.50;3.00;;;;;;;;;;5014467;28;20080;-79
2021/08/10 05:32:18;;;;;;;5.07;3.13;;;;;;;;;;5012759;28;20131;-80
2021/08/10 05:34:44;;;;;;;5.45;2.50;;;;;;;;;;5013287;28;20084;-80
2021/08/10 05:37:10;;;;;;;5.65;3.40;;;;;;;;;;5014740;28;20124;-80
2021/08/10 05:39:36;;;;;;;2.60;2.40;;;;;;;;;;5033877;28;20549;-79
2021/08/10 05:42:07;;;;;;;4.35;3.00;;;;;;;;;;5033438;28;20096;-79
2021/08/10 05:44:38;;;;;;;5.53;2.55;;;;;;;;;;5016337;28;20037;-79
2021/08/10 05:47:48;;;;;;;3.75;2.60;;;;;;;;;;5013703;28;20078;-80
2021/08/10 05:50:19;;;;;;;5.85;4.97;;;;;;;;;;5016130;28;20124;-80
2021/08/10 05:52:45;;;;;;;5.35;2.80;;;;;;;;;;5018161;28;20132;-77
2021/08/10 05:55:11;;;;;;;4.15;2.40;;;;;;;;;;5035750;28;20556;-78
2021/08/10 05:57:38;;;;;;;5.20;2.35;;;;;;;;;;5035730;28;20053;-78
2021/08/10 06:00:04;;;;;;;3.70;2.47;;;;;;;;;;5035529;28;20048;-78
2021/08/10 06:02:30;;;;;;;4.95;2.20;;;;;;;;;;5037026;28;20220;-78
2021/08/10 06:04:56;;;;;;;3.03;2.45;;;;;;;;;;5035429;28;20037;-78
2021/08/10 06:07:22;;;;;;;6.93;2.08;;;;;;;;;;5019206;28;20102;-77
2021/08/10 06:09:48;;;;;;;4.70;2.58;;;;;;;;;;5036686;28;20099;-78
2021/08/10 06:12:15;;;;;;;3.60;2.40;;;;;;;;;;5036838;28;20102;-78
2021/08/10 06:14:41;;;;;;;5.40;2.45;;;;;;;;;;5036591;28;20041;-78
2021/08/10 06:17:08;;;;;;;5.05;2.28;;;;;;;;;;5030057;28;20131;-78
2021/08/10 06:19:34;;;;;;;7.03;3.05;;;;;;;;;;5056988;28;20041;-79
2021/08/10 06:22:00;;;;;;;5.15;2.75;;;;;;;;;;5054877;28;20049;-78
2021/08/10 06:24:30;;;;;;;5.38;3.20;;;;;;;;;;5037505;28;20083;-79
2021/08/10 06:26:57;;;;;;;3.13;2.40;;;;;;;;;;5037609;28;20495;-78
2021/08/10 06:29:23;;;;;;;4.28;2.65;;;;;;;;;;5055548;28;20037;-78
2021/08/10 06:31:49;;;;;;;7.70;2.65;;;;;;;;;;5036761;28;20036;-78
2021/08/10 06:34:15;;;;;;;5.35;2.75;;;;;;;;;;5055711;28;20053;-79
2021/08/10 06:36:44;;;;;;;5.65;2.95;;;;;;;;;;5038196;28;20029;-79
2021/08/10 06:39:10;;;;;;;3.47;2.20;;;;;;;;;;5056994;28;20067;-80
2021/08/10 06:41:36;;;;;;;3.53;2.45;;;;;;;;;;5057024;28;20041;-79
2021/08/10 06:44:03;;;;;;;3.30;2.50;;;;;;;;;;5038843;28;20045;-80
2021/08/10 06:46:30;;;;;;;5.28;2.75;;;;;;;;;;5038946;28;20072;-80
2021/08/10 06:48:56;;;;;;;3.97;2.40;;;;;;;;;;5056543;28;20051;-79
2021/08/10 06:51:22;;;;;;;3.95;2.60;;;;;;;;;;5038935;28;20114;-79
2021/08/10 06:53:48;;;;;;;5.00;2.80;;;;;;;;;;5056737;28;20121;-80
2021/08/10 06:56:14;;;;;;;4.65;2.58;;;;;;;;;;5056723;28;20040;-79
2021/08/10 06:58:40;;;;;;;2.85;2.65;;;;;;;;;;5056667;28;20179;-79
2021/08/10 07:01:07;;;;;;;5.70;5.10;;;;;;;;;;5037384;28;20033;-78
2021/08/10 07:03:33;;;;;;;5.38;4.28;;;;;;;;;;5056231;28;20049;-79
2021/08/10 07:05:59;;;;;;;4.13;3.20;;;;;;;;;;5038498;28;20391;-79
2021/08/10 07:08:25;;;;;;;3.20;2.45;;;;;;;;;;5056174;28;20131;-79
2021/08/10 07:10:51;;;;;;;5.40;2.67;;;;;;;;;;5038668;28;20045;-80
2021/08/10 07:13:18;;;;;;;3.75;2.70;;;;;;;;;;5056819;28;20084;-79
2021/08/10 07:15:44;;;;;;;5.03;2.90;;;;;;;;;;5056230;28;20033;-80
2021/08/10 07:18:10;;;;;;;6.35;2.97;;;;;;;;;;5055982;28;20039;-79
2021/08/10 07:20:36;;;;;;;5.25;2.90;;;;;;;;;;5056021;28;20044;-79
2021/08/10 07:23:02;;;;;;;3.92;2.60;;;;;;;;;;5055298;28;20053;-79
2021/08/10 07:25:29;;;;;;;4.85;2.78;;;;;;;;;;5054007;28;20141;-77
2021/08/10 07:27:56;;;;;;;7.10;2.35;;;;;;;;;;5055591;28;20041;-78
2021/08/10 07:30:22;;;;;;;5.90;3.10;;;;;;;;;;5038267;28;20143;-79
2021/08/10 07:32:48;;;;;;;3.28;2.78;;;;;;;;;;5055737;28;20099;-77
2021/08/10 07:35:14;;;;;;;2.53;2.17;;;;;;;;;;5021625;28;20036;-77
2021/08/10 07:37:41;;;;;;;3.55;2.00;;;;;;;;;;5033528;28;20042;-77
2021/08/10 07:40:11;;;;;;;4.65;2.50;;;;;;;;;;5033678;28;20049;-79
2021/08/10 07:42:38;;;;;;;5.25;2.47;;;;;;;;;;5031187;28;20049;-77
2021/08/10 07:45:05;;;;;;;3.40;2.40;;;;;;;;;;5034023;28;20049;-75
2021/08/10 07:47:32;;;;;;;3.55;2.30;;;;;;;;;;5033630;28;20535;-75
2021/08/10 07:49:58;;;;;;;3.33;2.63;;;;;;;;;;5033346;28;20049;-75
2021/08/10 07:52:24;;;;;;;4.95;2.65;;;;;;;;;;5033625;28;20079;-75
2021/08/10 07:54:51;;;;;;;2.90;2.53;;;;;;;;;;5034624;28;20511;-75
2021/08/10 07:57:17;;;;;;;4.22;2.80;;;;;;;;;;5035227;28;20076;-75
2021/08/10 07:59:43;;;;;;;4.25;2.25;;;;;;;;;;5034938;28;20041;-75
2021/08/10 08:02:10;;;;;;;4.85;2.78;;;;;;;;;;5035057;28;20045;-77
2021/08/10 08:04:36;;;;;;;5.57;2.88;;;;;;;;;;5034312;28;20045;-77
2021/08/10 08:07:03;;;;;;;4.50;2.70;;;;;;;;;;5031956;28;20034;-77
2021/08/10 08:09:29;;;;;;;3.10;2.50;;;;;;;;;;5035130;28;20034;-77
2021/08/10 08:11:55;;;;;;;3.50;2.75;;;;;;;;;;5032978;28;20045;-77
2021/08/10 08:14:23;;;;;;;3.30;2.72;;;;;;;;;;5033626;28;20037;-77
2021/08/10 08:16:49;;;;;;;4.80;3.00;;;;;;;;;;5033974;28;20106;-77
2021/08/10 08:19:15;;;;;;;5.82;2.47;;;;;;;;;;5032892;28;20052;-76
2021/08/10 08:21:42;;;;;;;6.00;3.03;;;;;;;;;;5014906;28;20081;-77
2021/08/10 08:24:08;;;;;;;6.35;2.63;;;;;;;;;;5032346;28;20089;-77
2021/08/10 08:26:34;;;;;;;4.68;2.70;;;;;;;;;;5032224;28;20048;-78
2021/08/10 08:29:00;;;;;;;5.53;2.33;;;;;;;;;;5032086;28;20484;-77
2021/08/10 08:31:26;;;;;;;3.83;2.20;;;;;;;;;;5026955;28;20130;-75
2021/08/10 08:33:52;;;;;;;4.03;2.15;;;;;;;;;;5023274;28;20049;-77
2021/08/10 08:36:19;;;;;;;5.28;2.30;;;;;;;;;;5031547;28;20064;-79
2021/08/10 08:38:45;;;;;;;6.15;3.08;;;;;;;;;;5016346;28;20045;-77
2021/08/10 08:41:12;;;;;;;6.03;3.13;;;;;;;;;;5017200;28;20511;-78
2021/08/10 08:43:39;;;;;;;4.88;2.40;;;;;;;;;;5017154;28;20045;-77
2021/08/10 08:46:05;;;;;;;2.90;2.10;;;;;;;;;;5035105;28;20065;-77
2021/08/10 08:48:32;;;;;;;4.30;1.90;;;;;;;;;;5032516;28;20047;-75
2021/08/10 08:50:59;;;;;;;5.30;2.35;;;;;;;;;;5031957;28;20048;-73
2021/08/10 08:53:26;;;;;;;3.85;2.25;;;;;;;;;;5031831;28;20068;-73
2021/08/10 08:55:52;;;;;;;5.00;3.03;;;;;;;;;;5032307;28;20068;-73
2021/08/10 08:58:19;;;;;;;5.90;2.65;;;;;;;;;;5032051;28;20045;-73
2021/08/10 09:00:45;;;;;;;3.53;2.13;;;;;;;;;;5032496;28;20045;-74
2021/08/10 09:03:11;;;;;;;3.33;2.38;;;;;;;;;;5031438;28;20079;-78
2021/08/10 09:05:40;;;;;;;2.92;2.40;;;;;;;;;;5030074;28;20047;-77
2021/08/10 09:08:24;;;;;;;4.10;2.17;;;;;;;;;;5031352;28;20555;-75
2021/08/10 09:10:55;;;;;;;3.10;2.20;;;;;;;;;;5030047;28;20044;-78
2021/08/10 09:13:21;;;;;;;5.03;2.72;;;;;;;;;;5032263;28;20128;-73
2021/08/10 09:15:47;;;;;;;5.07;1.80;;;;;;;;;;5032389;28;20339;-76
2021/08/10 09:18:18;;;;;;;4.68;2.13;;;;;;;;;;5022071;28;20528;-74
2021/08/10 09:21:03;;;;;;;3.85;2.10;;;;;;;;;;5032314;28;20034;-76
2021/08/10 09:23:36;;;;;;;5.25;2.13;;;;;;;;;;5034414;28;20501;-75
2021/08/10 09:26:03;;;;;;;7.72;2.38;;;;;;;;;;5036981;28;20045;-75
2021/08/10 09:28:33;;;;;;;4.10;2.03;;;;;;;;;;5036921;28;20120;-75
2021/08/10 09:31:17;;;;;;;4.00;2.00;;;;;;;;;;5037492;28;20057;-76
2021/08/10 09:33:44;;;;;;;6.03;2.30;;;;;;;;;;5018269;28;20044;-75
2021/08/10 09:36:20;;;;;;;3.45;2.30;;;;;;;;;;5037437;28;20033;-75
2021/08/10 09:38:48;;;;;;;6.00;2.63;;;;;;;;;;5037329;28;20045;-76
2021/08/10 09:41:15;;;;;;;6.28;2.17;;;;;;;;;;5037001;28;20112;-75
2021/08/10 09:43:41;;;;;;;3.45;2.30;;;;;;;;;;5037296;28;20041;-75
2021/08/10 09:46:09;;;;;;;4.80;2.45;;;;;;;;;;5037562;28;20045;-75
2021/08/10 09:48:35;;;;;;;5.70;2.13;;;;;;;;;;5018271;28;20036;-75
2021/08/10 09:51:05;;;;;;;5.88;2.40;;;;;;;;;;5037463;28;20083;-76
2021/08/10 09:53:31;;;;;;;4.68;2.40;;;;;;;;;;5037414;28;20496;-75
2021/08/10 09:55:58;;;;;;;8.25;2.38;;;;;;;;;;5036897;28;20477;-75
2021/08/10 09:58:25;;;;;;;5.15;2.38;;;;;;;;;;5037152;28;20042;-75
2021/08/10 10:00:51;;;;;;;5.50;2.20;;;;;;;;;;5036831;28;20043;-75
2021/08/10 10:03:17;;;;;;;5.25;2.40;;;;;;;;;;5036650;28;20104;-75
2021/08/10 10:05:44;;;;;;;3.80;2.38;;;;;;;;;;5036682;28;20072;-74
2021/08/10 10:08:24;;;;;;;2.47;2.15;;;;;;;;;;5036246;28;20627;-74
2021/08/10 10:10:51;;;;;;;5.22;2.22;;;;;;;;;;5036997;28;20124;-74
2021/08/10 10:13:18;;;;;;;5.15;2.50;;;;;;;;;;5035962;28;20070;-75
2021/08/10 10:15:45;;;;;;;4.28;2.40;;;;;;;;;;5033275;28;20095;-76
2021/08/10 10:18:12;;;;;;;5.38;2.65;;;;;;;;;;5034603;28;20049;-75
2021/08/10 10:20:40;;;;;;;4.53;2.40;;;;;;;;;;5033277;28;20201;-75
2021/08/10 10:23:08;;;;;;;4.70;2.60;;;;;;;;;;5034330;28;20091;-75
2021/08/10 10:25:35;;;;;;;5.85;3.10;;;;;;;;;;5034373;28;20036;-75
2021/08/10 10:28:02;;;;;;;6.45;2.80;;;;;;;;;;5034133;28;20061;-78
2021/08/10 10:30:30;;;;;;;6.70;2.97;;;;;;;;;;5033953;28;20497;-75
2021/08/10 10:32:56;;;;;;;5.32;2.75;;;;;;;;;;5031646;28;20103;-74
2021/08/10 10:35:23;;;;;;;7.28;2.63;;;;;;;;;;5033429;28;20512;-74
2021/08/10 10:37:50;;;;;;;9.55;3.33;;;;;;;;;;5033804;28;20072;-75
2021/08/10 10:40:20;;;;;;;8.50;3.58;;;;;;;;;;5017393;28;20120;-78
2021/08/10 10:42:47;;;;;;;10.47;3.50;;;;;;;;;;5016294;28;20057;-70
2021/08/10 10:45:32;;;;;;;13.90;4.65;;;;;;;;;;5036348;28;20171;-73
2021/08/10 10:47:58;;;;;;;5.72;3.17;;;;;;;;;;5018713;28;20030;-73
2021/08/10 10:50:25;;;;;;;4.75;3.20;;;;;;;;;;5035572;28;20041;-75
2021/08/10 10:52:59;;;;;;;13.82;6.53;;;;;;;;;;5018209;28;20454;-75
2021/08/10 10:55:32;;;;;;;36.38;13.68;;;;;;;;;;5036527;28;20038;-73
2021/08/10 10:57:58;;;;;;;41.60;15.68;;;;;;;;;;5036347;28;20044;-73
2021/08/10 11:00:24;;;;;;;22.05;10.90;;;;;;;;;;5036482;28;20047;-75
2021/08/10 11:03:13;;;;;;;25.70;11.05;;;;;;;;;;5036183;28;20042;-73
2021/08/10 11:05:39;;;;;;;20.05;8.10;;;;;;;;;;5035681;28;20041;-77
2021/08/10 11:08:06;;;;;;;11.48;6.50;;;;;;;;;;5036184;28;20116;-76
2021/08/10 11:10:39;;;;;;;9.07;3.65;;;;;;;;;;5036265;28;20075;-77
2021/08/10 11:13:25;;;;;;;15.63;6.95;;;;;;;;;;5018314;28;20087;-75
2021/08/10 11:15:52;;;;;;;9.65;5.22;;;;;;;;;;5035624;28;20037;-75
2021/08/10 11:18:22;;;;;;;11.07;5.32;;;;;;;;;;5035707;28;20079;-74
2021/08/10 11:20:53;;;;;;;19.70;6.43;;;;;;;;;;5035320;28;20042;-75
2021/08/10 11:25:45;;;;;;;6.85;2.78;;;;;;;;;;5033872;28;19948;-76
2021/08/10 11:28:30;;;;;;;3.95;2.88;;;;;;;;;;5033785;28;20041;-76
2021/08/10 11:30:57;;;;;;;6.32;2.88;;;;;;;;;;5026099;28;20045;-76
2021/08/10 11:33:32;;;;;;;14.20;3.15;;;;;;;;;;5027973;28;20132;-79
2021/08/10 11:36:11;;;;;;;9.93;4.05;;;;;;;;;;5032859;28;20041;-76
2021/08/10 11:38:52;;;;;;;7.07;3.65;;;;;;;;;;5030829;28;20240;-75
2021/08/10 11:41:29;;;;;;;6.22;3.20;;;;;;;;;;5011540;28;20165;-76
2021/08/10 11:43:59;;;;;;;4.82;3.30;;;;;;;;;;5032338;28;20045;-76
2021/08/10 11:46:28;;;;;;;5.63;2.90;;;;;;;;;;5015044;28;20405;-76
2021/08/10 11:48:55;;;;;;;9.88;2.90;;;;;;;;;;5032358;28;20088;-76
2021/08/10 11:51:23;;;;;;;7.40;2.67;;;;;;;;;;5033419;28;20045;-75
2021/08/10 11:53:51;;;;;;;4.28;2.88;;;;;;;;;;5033579;28;20140;-76
2021/08/10 11:56:33;;;;;;;5.57;2.92;;;;;;;;;;5030428;28;20116;-76
2021/08/10 11:59:01;;;;;;;6.70;2.97;;;;;;;;;;5013638;28;20041;-75
2021/08/10 12:01:28;;;;;;;5.35;2.75;;;;;;;;;;5033348;28;20034;-76
2021/08/10 12:03:55;;;;;;;7.72;2.70;;;;;;;;;;5014291;28;20076;-76
2021/08/10 12:06:27;;;;;;;3.85;2.80;;;;;;;;;;5033254;28;20096;-76
2021/08/10 12:08:55;;;;;;;6.85;3.00;;;;;;;;;;5032536;28;20519;-79
2021/08/10 12:11:24;;;;;;;4.47;2.97;;;;;;;;;;5015610;28;20038;-80
2021/08/10 12:13:51;;;;;;;6.32;3.08;;;;;;;;;;5015389;28;21487;-81
2021/08/10 12:16:17;;;;;;;4.00;2.92;;;;;;;;;;5012355;28;20076;-81
2021/08/10 12:18:50;;;;;;;4.43;2.85;;;;;;;;;;5014687;28;20560;-81
2021/08/10 12:21:17;;;;;;;7.20;3.22;;;;;;;;;;5009814;28;20129;-81
2021/08/10 12:23:44;;;;;;;7.32;2.60;;;;;;;;;;5004915;28;20041;-81
2021/08/10 12:26:18;;;;;;;4.10;2.17;;;;;;;;;;5006015;28;21070;-80
2021/08/10 12:28:55;;;;;;;3.45;2.35;;;;;;;;;;5021579;28;20050;-80
2021/08/10 12:31:21;;;;;;;8.00;2.72;;;;;;;;;;5021021;28;20427;-79
2021/08/10 12:33:49;;;;;;;5.63;2.75;;;;;;;;;;5022791;28;20042;-79
2021/08/10 12:36:15;;;;;;;8.50;2.90;;;;;;;;;;5003950;28;20501;-79
2021/08/10 12:38:41;;;;;;;7.38;2.75;;;;;;;;;;5005532;28;20033;-79
2021/08/10 12:41:07;;;;;;;7.25;3.65;;;;;;;;;;5005812;28;20492;-80
2021/08/10 12:43:34;;;;;;;6.35;3.20;;;;;;;;;;5021063;28;20134;-81
2021/08/10 12:46:20;;;;;;;6.38;2.80;;;;;;;;;;5005755;28;20896;-80
2021/08/10 12:48:46;;;;;;;4.32;2.65;;;;;;;;;;5002844;28;20440;-79
2021/08/10 12:51:12;;;;;;;7.85;2.67;;;;;;;;;;5021604;28;20050;-80
2021/08/10 12:53:38;;;;;;;7.90;2.95;;;;;;;;;;5005090;28;20049;-79
2021/08/10 12:56:05;;;;;;;6.22;2.80;;;;;;;;;;5004929;28;20564;-82
2021/08/10 12:58:32;;;;;;;7.93;2.63;;;;;;;;;;5020207;28;20075;-81
2021/08/10 13:01:06;;;;;;;5.13;2.60;;;;;;;;;;5005151;28;20447;-80
2021/08/10 13:03:33;;;;;;;4.28;2.53;;;;;;;;;;5022455;28;20052;-79
2021/08/10 13:06:00;;;;;;;4.72;2.50;;;;;;;;;;5006703;28;20096;-80
2021/08/10 13:08:27;;;;;;;11.73;2.90;;;;;;;;;;4996588;28;20061;-80
2021/08/10 13:10:54;;;;;;;3.35;2.55;;;;;;;;;;4995770;28;20041;-80
2021/08/10 13:13:22;;;;;;;7.18;2.83;;;;;;;;;;5013593;28;20044;-81
2021/08/10 13:15:49;;;;;;;6.20;2.35;;;;;;;;;;5013282;28;20069;-79
2021/08/10 13:18:21;;;;;;;7.90;2.20;;;;;;;;;;4995700;28;20366;-81
2021/08/10 13:20:58;;;;;;;5.82;2.70;;;;;;;;;;5014049;28;20045;-81
2021/08/10 13:23:28;;;;;;;5.28;2.70;;;;;;;;;;5032899;28;20069;-80
2021/08/10 13:25:55;;;;;;;;;;;;;;;;;;5016341;28;20038;-79
2021/08/10 13:28:21;;;;;;;4.85;2.40;;;;;;;;;;5033488;28;20383;-79
2021/08/10 13:30:47;;;;;;;7.22;2.85;;;;;;;;;;5015421;28;20536;-79
2021/08/10 13:33:19;;;;;;;5.45;2.90;;;;;;;;;;5028971;28;20096;-79
2021/08/10 13:35:46;;;;;;;5.03;2.90;;;;;;;;;;4996308;28;20121;-78
2021/08/10 13:38:12;;;;;;;9.50;2.90;;;;;;;;;;4995485;28;20042;-77
2021/08/10 13:40:39;;;;;;;5.60;2.70;;;;;;;;;;5015763;28;20517;-78
2021/08/10 13:43:07;;;;;;;7.07;2.55;;;;;;;;;;5027375;28;20048;-78
2021/08/10 13:45:37;;;;;;;7.75;2.90;;;;;;;;;;5033539;28;20045;-79
2021/08/10 13:48:04;;;;;;;3.05;2.65;;;;;;;;;;5011981;28;20041;-79
2021/08/10 13:50:30;;;;;;;5.90;2.90;;;;;;;;;;5004289;28;20041;-77
2021/08/10 13:52:56;;;;;;;9.75;2.90;;;;;;;;;;5022594;28;20128;-78
2021/08/10 13:55:22;;;;;;;5.40;2.47;;;;;;;;;;5020997;28;20053;-77
2021/08/10 13:57:48;;;;;;;4.28;2.75;;;;;;;;;;5022209;28;20069;-76
2021/08/10 14:00:15;;;;;;;3.08;2.58;;;;;;;;;;5003752;28;20038;-77
2021/08/10 14:02:43;;;;;;;5.70;2.80;;;;;;;;;;5002759;28;20048;-78
2021/08/10 14:05:10;;;;;;;7.72;2.80;;;;;;;;;;5000577;28;20470;-78
2021/08/10 14:07:37;;;;;;;3.80;2.83;;;;;;;;;;5004110;28;20035;-78
2021/08/10 14:10:04;;;;;;;4.68;2.92;;;;;;;;;;5024439;28;20111;-78
2021/08/10 14:12:30;;;;;;;5.60;2.75;;;;;;;;;;5015366;28;20033;-78
2021/08/10 14:14:56;;;;;;;9.35;2.83;;;;;;;;;;5036783;28;20041;-78
2021/08/10 14:17:22;;;;;;;5.90;3.60;;;;;;;;;;5035212;28;20088;-78
2021/08/10 14:19:48;;;;;;;2.92;2.47;;;;;;;;;;5036554;28;20124;-78
2021/08/10 14:22:14;;;;;;;5.80;2.60;;;;;;;;;;5032173;28;20060;-79
2021/08/10 14:24:40;;;;;;;6.80;2.67;;;;;;;;;;5015759;28;20427;-79
2021/08/10 14:27:07;;;;;;;4.30;2.45;;;;;;;;;;5015893;28;20557;-79
2021/08/10 14:29:35;;;;;;;5.25;2.78;;;;;;;;;;5006164;28;20376;-79
2021/08/10 14:32:02;;;;;;;4.80;2.90;;;;;;;;;;5024521;28;20056;-79
2021/08/10 14:34:29;;;;;;;3.33;2.83;;;;;;;;;;5017256;28;20049;-80
2021/08/10 14:36:55;;;;;;;3.63;2.58;;;;;;;;;;4998595;28;20133;-83
2021/08/10 14:39:21;;;;;;;7.00;2.92;;;;;;;;;;5002726;28;20091;-85
2021/08/10 14:41:47;;;;;;;3.80;2.58;;;;;;;;;;5025253;28;20065;-84
2021/08/10 14:44:13;;;;;;;6.65;2.55;;;;;;;;;;5005513;28;20042;-83
2021/08/10 14:46:43;;;;;;;4.18;2.53;;;;;;;;;;5002944;28;20049;-87
2021/08/10 15:05:07;;;;;;;6.70;2.78;;;;;;;;;;4961814;28;20053;-84
2021/08/10 15:08:00;;;;;;;;;;;;;;;;;;;;;